createdAt,value
2022-11-03T00:00:37.481Z,98450.06
2022-11-03T00:05:58.607Z,98451.19
2022-11-03T00:11:19.065Z,98457.31
2022-11-03T00:16:21.547Z,98442.66
2022-11-03T00:21:24.321Z,98439.66
2022-11-03T00:26:28.821Z,98435.50
2022-11-03T00:31:33.704Z,98440.06
2022-11-03T00:36:41.093Z,98427.41
2022-11-03T00:41:43.437Z,98421.72
2022-11-03T00:46:45.790Z,98404.00
2022-11-03T00:51:48.186Z,98402.13
2022-11-03T00:56:50.606Z,98396.63
2022-11-03T01:01:53.125Z,98396.78
2022-11-03T01:06:57.460Z,98394.13
2022-11-03T01:12:04.774Z,98379.22
2022-11-03T01:17:10.432Z,98375.31
2022-11-03T01:22:13.891Z,98366.06
2022-11-03T01:27:18.726Z,98369.34
2022-11-03T01:32:21.110Z,98362.75
2022-11-03T01:37:25.737Z,98351.38
2022-11-03T01:42:28.076Z,98345.66
2022-11-03T01:47:34.999Z,98335.94
2022-11-03T01:52:37.308Z,98338.88
2022-11-03T01:57:49.637Z,98328.09
2022-11-03T02:02:52.712Z,98316.59
2022-11-03T02:13:32.281Z,98309.22
2022-11-03T02:18:35.282Z,98312.34
2022-11-03T02:23:53.130Z,98300.50
2022-11-03T02:28:55.620Z,98290.25
2022-11-03T02:34:11.602Z,98293.94
2022-11-03T02:39:23.223Z,98276.69
2022-11-03T02:44:27.122Z,98279.34
2022-11-03T02:49:29.637Z,98276.38
2022-11-03T02:54:45.056Z,98261.63
2022-11-03T02:59:58.643Z,98252.97
2022-11-03T03:05:04.291Z,98245.66
2022-11-03T03:10:10.205Z,98238.63
2022-11-03T03:15:12.957Z,98231.81
2022-11-03T03:20:37.487Z,98229.59
2022-11-03T03:25:45.894Z,98218.38
2022-11-03T03:30:50.560Z,98207.56
2022-11-03T03:35:54.225Z,98206.03
2022-11-03T03:40:59.901Z,98195.72
2022-11-03T03:46:11.668Z,98187.16
2022-11-03T03:51:16.749Z,98183.50
2022-11-03T03:56:23.934Z,98168.50
2022-11-03T04:01:26.386Z,98169.94
2022-11-03T04:06:28.828Z,98160.19
2022-11-03T04:11:49.875Z,98145.09
2022-11-03T04:17:10.722Z,98130.69
2022-11-03T04:22:19.221Z,98140.53
2022-11-03T04:27:30.739Z,98138.13
2022-11-03T04:32:34.511Z,98133.09
2022-11-03T04:37:38.104Z,98127.25
2022-11-03T04:42:41.055Z,98118.53
2022-11-03T04:47:43.680Z,98113.94
2022-11-03T04:52:47.597Z,98097.53
2022-11-03T04:57:58.062Z,98092.53
2022-11-03T05:03:00.659Z,98098.78
2022-11-03T05:08:03.282Z,98094.19
2022-11-03T05:13:17.742Z,98082.47
2022-11-03T05:18:29.510Z,98074.84
2022-11-03T05:23:40.587Z,98068.66
2022-11-03T05:28:52.406Z,98059.09
2022-11-03T05:33:58.738Z,98051.44
2022-11-03T05:39:28.786Z,98047.69
2022-11-03T05:44:39.812Z,98039.50
2022-11-03T05:49:42.196Z,98029.69
2022-11-03T05:54:44.622Z,98030.53
2022-11-03T05:59:49.590Z,98028.06
2022-11-03T06:04:52.128Z,98028.78
2022-11-03T06:09:54.911Z,98019.69
2022-11-03T06:14:57.363Z,98017.63
2022-11-03T06:20:01.102Z,97999.09
2022-11-03T06:25:28.029Z,97992.38
2022-11-03T06:30:36.099Z,97984.97
2022-11-03T06:35:38.689Z,97982.38
2022-11-03T06:40:41.238Z,97990.25
2022-11-03T06:45:51.210Z,97997.44
2022-11-03T06:50:55.003Z,97993.69
2022-11-03T06:55:58.079Z,97988.25
2022-11-03T07:01:04.496Z,97984.19
2022-11-03T07:06:29.173Z,97978.00
2022-11-03T07:11:44.648Z,97981.47
2022-11-03T07:16:54.508Z,97961.78
2022-11-03T07:22:04.726Z,97956.28
2022-11-03T07:27:51.400Z,97948.75
2022-11-03T07:32:55.974Z,97952.84
2022-11-03T07:38:02.672Z,97949.00
2022-11-03T07:43:22.581Z,97950.06
2022-11-03T07:48:36.694Z,97941.59
2022-11-03T07:53:48.656Z,97932.69
2022-11-03T07:58:55.827Z,97932.56
2022-11-03T08:04:05.928Z,97909.03
2022-11-03T08:09:08.283Z,97904.66
2022-11-03T08:14:10.720Z,97893.44
2022-11-03T08:19:13.186Z,97881.09
2022-11-03T08:24:15.629Z,97867.97
2022-11-03T08:29:18.052Z,97858.88
2022-11-03T08:34:20.748Z,97860.50
2022-11-03T08:39:23.142Z,97848.13
2022-11-03T08:44:25.497Z,97840.22
2022-11-03T08:49:27.858Z,97851.09
2022-11-03T08:54:30.214Z,97831.81
2022-11-03T08:59:32.730Z,97824.03
2022-11-03T09:04:35.370Z,97831.16
2022-11-03T09:15:00.163Z,97819.03
2022-11-03T09:20:02.928Z,97813.28
2022-11-03T09:25:05.825Z,97813.41
2022-11-03T09:30:13.619Z,97808.78
2022-11-03T09:35:17.130Z,97805.13
2022-11-03T09:40:21.589Z,97802.97
2022-11-03T09:45:23.997Z,97795.78
2022-11-03T09:50:26.413Z,97781.81
2022-11-03T09:55:28.870Z,97768.22
2022-11-03T10:00:31.369Z,97770.63
2022-11-03T10:05:34.674Z,97771.31
2022-11-03T10:10:37.993Z,97747.78
2022-11-03T10:15:42.200Z,97747.28
2022-11-03T10:20:45.016Z,97757.56
2022-11-03T10:25:47.818Z,97752.97
2022-11-03T10:31:16.027Z,97750.69
2022-11-03T10:36:18.373Z,97725.31
2022-11-03T10:41:23.727Z,97711.47
2022-11-03T10:51:51.452Z,97698.84
2022-11-03T10:56:54.022Z,97693.16
2022-11-03T11:01:57.377Z,97685.16
2022-11-03T11:07:00.170Z,97677.84
2022-11-03T11:12:07.063Z,97657.88
2022-11-03T11:17:38.567Z,97643.41
2022-11-03T11:22:40.927Z,97640.47
2022-11-03T11:27:46.354Z,97629.81
2022-11-03T11:33:10.317Z,97629.16
2022-11-03T11:38:52.336Z,97617.56
2022-11-03T11:44:11.301Z,97606.84
2022-11-03T11:49:16.771Z,97600.22
2022-11-03T11:54:21.248Z,97587.78
2022-11-03T11:59:25.947Z,97585.66
2022-11-03T12:04:31.733Z,97575.06
2022-11-03T12:09:34.699Z,97560.50
2022-11-03T12:14:40.657Z,97546.25
2022-11-03T12:19:50.657Z,97532.28
2022-11-03T12:25:42.256Z,97521.03
2022-11-03T12:30:44.624Z,97521.50
2022-11-03T12:35:47.029Z,97508.91
2022-11-03T12:40:49.636Z,97500.72
2022-11-03T12:45:52.346Z,97478.69
2022-11-03T12:50:54.701Z,97471.25
2022-11-03T12:55:57.297Z,97464.72
2022-11-03T13:01:01.817Z,97457.91
2022-11-03T13:06:06.688Z,97442.41
2022-11-03T13:11:29.099Z,97433.31
2022-11-03T13:16:32.297Z,97415.22
2022-11-03T13:21:34.983Z,97389.13
2022-11-03T13:26:37.354Z,97380.19
2022-11-03T13:31:40.035Z,97375.03
2022-11-03T13:36:42.543Z,97358.31
2022-11-03T13:41:45.217Z,97343.41
2022-11-03T13:46:47.599Z,97337.34
2022-11-03T13:51:49.966Z,97328.66
2022-11-03T14:07:40.161Z,97296.22
2022-11-03T14:12:42.536Z,97278.53
2022-11-03T14:17:44.887Z,97265.50
2022-11-03T14:22:47.299Z,97261.34
2022-11-03T14:27:50.798Z,97265.81
2022-11-03T14:32:58.397Z,97264.44
2022-11-03T14:38:02.134Z,97254.84
2022-11-03T14:43:05.153Z,97247.31
2022-11-03T14:48:08.115Z,97253.03
2022-11-03T14:53:10.781Z,97222.78
2022-11-03T14:58:13.124Z,97204.59
2022-11-03T15:03:15.828Z,97190.66
2022-11-03T15:08:19.040Z,97188.84
2022-11-03T15:13:21.422Z,97186.13
2022-11-03T15:18:24.253Z,97169.41
2022-11-03T15:28:49.230Z,97144.19
2022-11-03T15:33:51.618Z,97151.78
2022-11-03T15:38:54.013Z,97141.13
2022-11-03T15:43:56.498Z,97136.91
2022-11-03T15:48:58.869Z,97119.94
2022-11-03T15:54:02.572Z,97106.41
2022-11-03T15:59:05.267Z,97088.28
2022-11-03T16:04:07.743Z,97078.38
2022-11-03T16:09:10.105Z,97074.66
2022-11-03T16:14:15.014Z,97054.50
2022-11-03T16:19:17.450Z,97055.44
2022-11-03T16:24:19.910Z,97032.06
2022-11-03T16:29:22.368Z,97029.16
2022-11-03T16:34:24.796Z,97026.28
2022-11-03T16:39:27.263Z,97017.22
2022-11-03T16:44:30.443Z,97000.25
2022-11-03T16:49:33.147Z,97017.22
2022-11-03T16:54:35.902Z,96993.69
2022-11-03T16:59:38.762Z,96992.94
2022-11-03T17:04:41.428Z,96999.31
2022-11-03T17:09:43.803Z,96994.97
2022-11-03T17:14:46.155Z,97006.88
2022-11-03T17:19:48.570Z,97033.44
2022-11-03T17:24:51.281Z,97032.75
2022-11-03T17:29:57.965Z,97026.69
2022-11-03T17:35:00.378Z,97013.09
2022-11-03T17:40:03.091Z,97008.88
2022-11-03T17:45:11.390Z,97020.53
2022-11-03T17:50:16.151Z,97023.75
2022-11-03T17:55:23.459Z,96995.53
2022-11-03T18:00:26.597Z,96988.84
2022-11-03T18:05:31.482Z,96967.94
2022-11-03T18:10:38.342Z,96965.50
2022-11-03T18:15:42.059Z,96956.69
2022-11-03T18:20:52.826Z,96953.94
2022-11-03T18:25:55.947Z,96957.75
2022-11-03T18:30:58.831Z,96962.78
2022-11-03T18:36:04.680Z,96980.44
2022-11-03T18:41:47.254Z,96971.19
2022-11-03T18:46:51.485Z,96943.59
2022-11-03T18:52:02.974Z,96926.50
2022-11-03T18:57:06.237Z,96916.59
2022-11-03T19:02:19.652Z,96921.00
2022-11-03T19:07:35.054Z,96939.38
2022-11-03T19:12:39.780Z,96913.94
2022-11-03T19:17:42.247Z,96904.16
2022-11-03T19:22:45.701Z,96894.91
2022-11-03T19:27:49.078Z,96882.84
2022-11-03T19:32:55.687Z,96893.59
2022-11-03T19:38:11.362Z,96864.28
2022-11-03T19:43:13.880Z,96870.19
2022-11-03T19:48:24.319Z,96875.84
2022-11-03T19:53:29.305Z,96865.44
2022-11-03T19:58:31.774Z,96853.84
2022-11-03T20:03:34.575Z,96847.91
2022-11-03T20:08:37.849Z,96856.97
2022-11-03T20:13:43.098Z,96871.47
2022-11-03T20:18:48.152Z,96866.66
2022-11-03T20:23:51.376Z,96855.09
2022-11-03T20:28:56.228Z,96846.38
2022-11-03T20:33:58.573Z,96849.13
2022-11-03T20:39:02.191Z,96837.03
2022-11-03T20:44:05.056Z,96842.16
2022-11-03T20:49:07.582Z,96831.78
2022-11-03T20:54:19.858Z,96827.13
2022-11-03T20:59:24.704Z,96835.41
2022-11-03T21:04:29.985Z,96841.78
2022-11-03T21:09:32.662Z,96865.50
2022-11-03T21:14:35.665Z,96873.22
2022-11-03T21:19:57.353Z,96878.28
2022-11-03T21:24:59.783Z,96881.47
2022-11-03T21:30:02.171Z,96866.13
2022-11-03T21:35:06.021Z,96853.63
2022-11-03T21:40:10.261Z,96852.78
2022-11-03T21:45:13.474Z,96861.94
2022-11-03T21:50:16.160Z,96861.69
2022-11-03T21:55:18.552Z,96879.28
2022-11-03T22:00:21.021Z,96891.06
2022-11-03T22:05:23.414Z,96912.59
2022-11-03T22:10:25.826Z,96958.22
2022-11-03T22:15:47.027Z,96954.22
2022-11-03T22:21:08.122Z,96948.28
2022-11-03T22:26:34.743Z,96958.31
2022-11-03T22:31:43.364Z,96983.69
2022-11-03T22:36:45.714Z,96992.03
2022-11-03T22:42:07.059Z,96997.94
2022-11-03T22:47:11.222Z,97023.94
2022-11-03T22:52:14.568Z,97019.84
2022-11-03T22:57:17.027Z,97025.16
2022-11-03T23:02:20.600Z,97011.84
2022-11-03T23:07:27.035Z,97030.59
2022-11-03T23:12:32.581Z,97038.44
2022-11-03T23:17:53.858Z,97035.88
2022-11-03T23:22:58.687Z,97027.84
2022-11-03T23:28:01.048Z,97049.91
2022-11-03T23:33:03.445Z,97067.59
2022-11-03T23:38:06.515Z,97045.94
2022-11-03T23:43:09.055Z,97046.84
2022-11-03T23:48:30.008Z,97026.31
2022-11-03T23:53:32.378Z,97038.09
2022-11-03T23:58:34.948Z,97049.88
